Saturday, February 24, 2018, 3:19 AM EST
Back to Local

KABE, Lehigh Valley International Airport

Location: Allentown, PA, United States Lat: 40.65
Local Time: 3:19 AM EST ( 8:19 GMT) Lon: -75.45
Time Zone: US/Eastern Elev: 393 ft

Show me the last for .
Show Decoded

2018-02-24 02:51 METAR KABE 240751Z AUTO 26005KT 2 1/2SM BR OVC005 06/04 A3018 RMK AO2 SFC VIS 5
                 SLP221 T00610044 =
2018-02-24 02:49 METAR KABE 240749Z AUTO 24006KT 2 1/2SM BR OVC005 06/04 A3018 RMK AO2 SFC VIS 5
                 =
2018-02-24 01:51 METAR KABE 240651Z 26005KT 2 1/2SM BR OVC004 06/04 A3020 RMK AO2 SFC VIS 4
                 SLP228 T00610044 =
2018-02-24 01:13 METAR KABE 240613Z 26007KT 2 1/2SM BR OVC005 06/04 A3020 RMK AO2 SFC VIS 5
                 T00560039 =
2018-02-24 00:59 METAR KABE 240559Z 26006KT 2 1/2SM BR OVC004 06/04 A3020 RMK AO2 SFC VIS 5
                 T00560039 =
2018-02-24 00:51 METAR KABE 240551Z 25006KT 1/2SM BR OVC003 06/04 A3019 RMK AO2 SFC VIS 4 SLP227
                 T00560039 10056 20044 56019 =
2018-02-23 23:51 METAR KABE 240451Z 27003KT 1/2SM BR VV002 05/04 A3020 RMK AO2 SFC VIS 3/4 SLP230
                 T00500039 400500022 =
2018-02-23 22:51 METAR KABE 240351Z 24003KT 1/2SM FG VV002 05/04 A3021 RMK AO2 SLP233 T00500039 =
2018-02-23 21:51 METAR KABE 240251Z 25003KT 1/2SM BR VV003 05/03 A3025 RMK AO2 SFC VIS 1 SLP246
                 T00500033 58018 =
2018-02-23 21:32 METAR KABE 240232Z 24003KT 3/4SM BR OVC003 05/03 A3025 RMK AO2 SFC VIS 1
                 T00500033 =
2018-02-23 20:51 METAR KABE 240151Z 00000KT 1 1/4SM BR OVC002 04/03 A3027 RMK AO2 TWR VIS 2 1/2
                 SLP251 T00440033 =
2018-02-23 19:51 METAR KABE 240051Z 00000KT 1 3/4SM BR OVC004 04/03 A3029 RMK AO2 TWR VIS 2 1/2
                 SLP261 T00440033 =
2018-02-23 19:01 METAR KABE 240001Z 00000KT 2 1/2SM BR OVC003 04/03 A3030 RMK AO2 SFC VIS 4
                 T00440033 =
2018-02-23 18:51 METAR KABE 232351Z 00000KT 2 1/2SM BR OVC005 04/03 A3030 RMK AO2 SFC VIS 4
                 SLP265 60005 T00440028 10044 20033 58024 =
2018-02-23 17:51 METAR KABE 232251Z 14003KT 1 3/4SM BKN007 OVC014 04/03 A3033 RMK AO2 SFC VIS 7
                 RAE14 SLP273 P0002 T00440028 =
2018-02-23 16:51 METAR KABE 232151Z 00000KT 1 3/4SM -RA BR OVC005 04/02 A3037 RMK AO2 SLP288
                 P0001 T00440022 =
2018-02-23 16:42 METAR KABE 232142Z 00000KT 1 3/4SM -RA BR OVC005 04/02 A3037 RMK AO2 P0001
                 T00440022 =
2018-02-23 16:29 METAR KABE 232129Z 00000KT 1 3/4SM -RA BR OVC004 04/03 A3037 RMK AO2 P0001
                 T00440028 =
2018-02-23 16:17 METAR KABE 232117Z 12003KT 1 3/4SM -RA BR BKN006 OVC009 04/03 A3036 RMK AO2
                 P0000 T00440028 =
2018-02-23 15:55 METAR KABE 232055Z 11005KT 1 3/4SM -RA BR BKN004 OVC009 04/02 A3037 RMK AO2
                 PRESFR P0000 T00440022 =
2018-02-23 15:53 METAR KABE 232053Z 13005KT 3SM -RA BR BKN005 OVC009 04/02 A3037 RMK AO2 P0000
                 T00440022 =
2018-02-23 15:51 METAR KABE 232051Z 13004KT 1 3/4SM -RA BR OVC009 04/02 A3038 RMK AO2
                 RAB1959E09B34 SLP290 P0001 60002 T00440022 56036 =
2018-02-23 15:26 METAR KABE 232026Z 13004KT 1 3/4SM BR OVC007 04/02 A3040 RMK AO2 RAB1959E09
                 P0000 T00390022 =
2018-02-23 14:51 METAR KABE 231951Z 10005KT 2 1/2SM BR OVC005 04/02 A3040 RMK AO2 RAB17E25 SLP297
                 P0000 T00390022 =
2018-02-23 14:20 METAR KABE 231920Z 13003KT 2 1/2SM -RA BR OVC006 04/02 A3043 RMK AO2 RAB17 P0000
                 T00390017 =
2018-02-23 13:51 METAR KABE 231851Z 14004KT 3SM BR BKN006 OVC010 04/02 A3044 RMK AO2 RAE01 SLP313
                 P0001 T00390017 =
2018-02-23 13:34 METAR KABE 231834Z 11006KT 2SM BR BKN006 OVC010 04/02 A3044 RMK AO2 RAE01 P0001
                 T00390017 =
2018-02-23 13:09 METAR KABE 231809Z 11006KT 1 1/2SM BR OVC007 04/02 A3047 RMK AO2 RAE01 P0000
                 T00390017 =
2018-02-23 12:51 METAR KABE 231751Z 11006KT 2 1/2SM -RA BR OVC006 03/01 A3049 RMK AO2
                 RAB1654E06B40 SLP327 P0000 60007 T00330011 10039 20028 56026 =
2018-02-23 12:48 METAR KABE 231748Z 11005KT 2 1/2SM -RA BR OVC008 03/01 A3049 RMK AO2
                 RAB1654E06B40 P0000 =
2018-02-23 12:07 METAR KABE 231707Z 10007KT 3SM BR OVC005 03/01 A3051 RMK AO2 RAB1654E06 P0000
                 T00330011 =
2018-02-23 11:51 METAR KABE 231651Z 11005KT 2 1/2SM BR OVC007 03/01 A3052 RMK AO2 SLP339
                 T00330011 =
2018-02-23 11:27 METAR KABE 231627Z 12005KT 4SM BR OVC009 03/01 A3055 RMK AO2 T00330011 =
2018-02-23 10:51 METAR KABE 231551Z 11007KT 10SM OVC010 03/01 A3056 RMK AO2 RAE21 SLP353 P0000
                 T00330006 =
2018-02-23 10:42 METAR KABE 231542Z 11006G15KT 10SM OVC010 03/01 A3057 RMK AO2 RAE21 P0000
                 T00330006 =
2018-02-23 09:51 METAR KABE 231451Z 11007KT 6SM -RA OVC008 03/01 A3058 RMK AO2 SLP361 P0004 60007
                 T00330006 58003 =
2018-02-23 09:01 METAR KABE 231401Z 09006KT 3SM -RA BR BKN008 OVC013 03/01 A3060 =
2018-02-23 08:51 METAR KABE 231351Z 07006KT 4SM -RA BR SCT006 OVC013 03/01 A3060 RMK AO2
                 UPE1255RAB1259 SLP365 P0003 T00280006 =
2018-02-23 08:39 METAR KABE 231339Z 10007KT 5SM -RA BKN012 OVC018 03/00 A3061 RMK AO2
                 UPE1255RAB1259 P0001 T00280000 =
2018-02-23 08:32 METAR KABE 231332Z 11006KT 6SM -RA SCT009 OVC015 03/00 A3060 RMK AO2
                 UPE1255RAB1259 P0001 T00280000 =
2018-02-23 07:51 METAR KABE 231251Z 11004KT 6SM UP BR OVC011 03/01 A3062 RMK AO2 UPB44 SLP372
                 P0000 T00280006 =
2018-02-23 07:21 METAR KABE 231221Z 13007KT 090V160 9SM SCT008 OVC014 03/00 A3061 RMK AO2
                 T00280000 =
2018-02-23 06:51 METAR KABE 231151Z 10006KT 5SM BR OVC006 03/01 A3059 RMK AO2 UPE15 SLP364 P0000
                 60000 70030 T00280006 10028 20022 55008 =
2018-02-23 06:11 METAR KABE 231111Z 09009KT 2SM UP BR OVC005 03/01 A3059 RMK AO2 SFC VIS 4 P0000
                 T00280006 =
2018-02-23 05:51 METAR KABE 231051Z 09006KT 6SM UP BR OVC006 03/01 A3059 RMK AO2 UPB47 SLP363
                 P0000 T00280006 =
2018-02-23 04:51 METAR KABE 230951Z 07008KT 10SM OVC007 02/00 A3061 RMK AO2 SLP368 T00220000 =
2018-02-23 03:51 METAR KABE 230851Z 04007KT 10SM OVC008 02/00 A3062 RMK AO2 SLP372 T00220000
                 56009 =

Support USWX by starting your Amazon purchase here.